Terminal Aerodrome Forecast
Issued by NWS

Home | Current Version | Previous Version | Text Only | Print | Product List | Glossary On
Versions: 1 2 3 4 5 6 7 8 9 10 11 12 13 14
000
FTUS44 KMAF 281720
TAFCNM
TAF
KCNM 281720Z 2818/2918 35007KT P6SM SCT200
     FM290100 VRB04KT P6SM BKN200
     FM291500 07010KT P6SM SCT200=

USA.gov is the U.S. government's official web portal to all federal, state and local government web resources and services.